Time;durP1;ratioP1;P1;durP2;ratioP2;P2;SDS_P1;SDS_P2;PMS_P1;PMS_P2;Temp;Humidity;BMP_temperature;BMP_pressure;BME280_temperature;BME280_humidity;BME280_pressure;Samples;Min_cycle;Max_cycle;Signal;HPM_P1;HPM_P2
2020/12/19 00:00:18;;;;;;;11.20;6.95;;;;;;;6.61;97.26;101427.91;5056353;28;20031;-81
2020/12/19 00:02:43;;;;;;;9.15;7.30;;;;;;;6.57;97.13;101420.97;5051240;28;20035;-80
2020/12/19 00:05:08;;;;;;;10.38;7.05;;;;;;;6.61;97.19;101414.78;5053578;28;20028;-80
2020/12/19 00:07:34;;;;;;;11.82;7.80;;;;;;;6.57;97.23;101423.59;5055416;28;20633;-81
2020/12/19 00:10:01;;;;;;;10.45;6.95;;;;;;;6.47;97.50;101421.13;5052455;28;20505;-81
2020/12/19 00:12:26;;;;;;;13.82;7.50;;;;;;;6.49;97.83;101414.09;5052653;28;20036;-81
2020/12/19 00:14:52;;;;;;;10.70;7.35;;;;;;;6.48;97.82;101415.00;5054279;28;20029;-81
2020/12/19 00:17:17;;;;;;;11.77;7.90;;;;;;;6.48;97.64;101414.16;5056500;28;20059;-80
2020/12/19 00:19:43;;;;;;;11.25;8.00;;;;;;;6.42;97.73;101406.34;5054040;28;20021;-81
2020/12/19 00:22:08;;;;;;;11.02;7.57;;;;;;;6.39;97.92;101402.03;5053830;28;20075;-81
2020/12/19 00:24:33;;;;;;;15.25;8.00;;;;;;;6.35;98.26;101397.72;5055473;28;20029;-80
2020/12/19 00:26:59;;;;;;;10.65;7.50;;;;;;;6.39;97.92;101393.31;5054873;28;20037;-80
2020/12/19 00:29:24;;;;;;;12.07;7.95;;;;;;;6.35;98.07;101397.72;5051481;28;20058;-81
2020/12/19 00:31:50;;;;;;;14.30;8.20;;;;;;;6.30;98.37;101394.31;5052189;28;20025;-80
2020/12/19 00:34:16;;;;;;;11.43;8.02;;;;;;;6.30;98.15;101393.47;5050885;28;20032;-80
2020/12/19 00:36:42;;;;;;;15.02;8.73;;;;;;;6.34;97.87;101398.63;5049263;28;20025;-80
2020/12/19 00:39:07;;;;;;;10.27;7.40;;;;;;;6.43;97.48;101392.34;5052906;28;20046;-80
2020/12/19 00:41:33;;;;;;;10.02;7.85;;;;;;;6.28;98.06;101396.13;5046262;28;20049;-80
2020/12/19 00:43:58;;;;;;;13.38;8.07;;;;;;;6.33;97.78;101391.66;5052905;28;21034;-81
2020/12/19 00:46:23;;;;;;;12.95;8.55;;;;;;;6.28;97.80;101390.00;5057976;28;20028;-82
2020/12/19 00:48:49;;;;;;;11.30;8.02;;;;;;;6.19;98.24;101384.03;5053364;28;20063;-81
2020/12/19 00:51:18;;;;;;;11.63;8.02;;;;;;;6.26;98.03;101376.91;5055874;28;20641;-79
2020/12/19 00:53:45;;;;;;;11.98;7.75;;;;;;;6.29;97.82;101379.47;5053153;28;20033;-81
2020/12/19 00:56:27;;;;;;;14.25;7.75;;;;;;;6.39;97.41;101375.78;5056484;28;20027;-81
2020/12/19 00:58:55;;;;;;;11.77;7.25;;;;;;;6.37;97.52;101379.31;5049309;28;20478;-81
2020/12/19 01:01:23;;;;;;;14.20;8.25;;;;;;;6.24;97.59;101370.81;5052450;28;20032;-81
2020/12/19 01:03:48;;;;;;;12.55;8.27;;;;;;;6.22;97.77;101372.59;5034966;28;20096;-81
2020/12/19 01:06:16;;;;;;;13.27;8.45;;;;;;;6.27;97.59;101364.63;5055322;28;20533;-82
2020/12/19 01:08:44;;;;;;;14.38;8.35;;;;;;;6.29;97.48;101371.59;5058098;28;20058;-81
2020/12/19 01:11:14;;;;;;;15.90;8.57;;;;;;;6.30;97.37;101361.97;5057284;28;20481;-81
2020/12/19 01:13:41;;;;;;;12.13;8.32;;;;;;;6.31;97.27;101356.69;5056837;28;20057;-81
2020/12/19 01:16:06;;;;;;;13.48;8.45;;;;;;;6.30;97.23;101352.31;5060574;28;20550;-81
2020/12/19 01:18:31;;;;;;;16.98;8.52;;;;;;;6.31;97.09;101355.81;5056455;28;20032;-81
2020/12/19 01:20:57;;;;;;;12.70;8.65;;;;;;;6.28;97.07;101354.13;5057402;28;20067;-81
2020/12/19 01:23:22;;;;;;;11.23;8.13;;;;;;;6.17;97.47;101366.56;5058417;28;20027;-82
2020/12/19 01:25:47;;;;;;;15.25;8.85;;;;;;;6.18;97.45;101361.31;5057358;28;20028;-81
2020/12/19 01:28:12;;;;;;;12.35;8.77;;;;;;;6.12;97.64;101358.75;5053425;28;20028;-81
2020/12/19 01:30:38;;;;;;;12.60;8.55;;;;;;;6.07;97.99;101362.38;5059916;28;20103;-81
2020/12/19 01:33:03;;;;;;;13.20;8.68;;;;;;;6.03;98.05;101356.31;5052959;28;20108;-81
2020/12/19 01:35:29;;;;;;;16.48;9.63;;;;;;;5.94;98.35;101356.47;5058188;28;20037;-81
2020/12/19 01:37:54;;;;;;;11.00;8.00;;;;;;;6.05;98.30;101351.03;5054436;28;20060;-81
2020/12/19 01:40:19;;;;;;;13.45;8.70;;;;;;;6.06;97.88;101356.25;5056416;28;20020;-81
2020/12/19 01:42:44;;;;;;;14.00;9.50;;;;;;;6.04;97.95;101355.44;5050992;28;20469;-82
2020/12/19 01:45:10;;;;;;;11.85;8.77;;;;;;;5.99;97.99;101343.28;5052527;28;20036;-82
2020/12/19 01:47:36;;;;;;;15.43;9.63;;;;;;;5.95;98.31;101355.56;5051305;28;20021;-82
2020/12/19 01:50:05;;;;;;;13.52;8.82;;;;;;;6.01;97.97;101358.09;5054459;28;20459;-81
2020/12/19 01:52:31;;;;;;;14.27;9.00;;;;;;;6.01;98.08;101346.72;5052469;28;20025;-81
2020/12/19 01:54:58;;;;;;;15.15;9.48;;;;;;;5.98;98.00;101352.91;5051376;28;20052;-82
2020/12/19 01:57:26;;;;;;;14.77;9.40;;;;;;;5.93;98.27;101350.38;5033887;28;20036;-81
2020/12/19 01:59:52;;;;;;;13.65;8.77;;;;;;;5.94;98.08;101344.22;5072509;28;20119;-81
2020/12/19 02:02:21;;;;;;;12.80;8.23;;;;;;;6.03;97.76;101340.59;5050893;28;20468;-81
2020/12/19 02:04:47;;;;;;;15.18;9.05;;;;;;;6.00;98.11;101342.38;5058233;28;20066;-80
2020/12/19 02:07:12;;;;;;;15.15;8.75;;;;;;;5.98;97.74;101342.41;5058724;28;20041;-81
2020/12/19 02:09:40;;;;;;;15.57;9.13;;;;;;;5.95;98.00;101339.84;5057764;28;20044;-81
2020/12/19 02:12:07;;;;;;;14.30;9.63;;;;;;;5.93;97.92;101336.38;5060139;28;20036;-79
2020/12/19 02:14:32;;;;;;;12.98;7.97;;;;;;;5.99;97.90;101343.28;5056552;28;20033;-81
2020/12/19 02:17:03;;;;;;;15.60;10.52;;;;;;;5.91;98.09;101328.53;5061616;28;20535;-81
2020/12/19 02:19:29;;;;;;;15.25;9.48;;;;;;;5.79;98.29;101323.47;5060527;28;20029;-82
2020/12/19 02:21:55;;;;;;;14.85;9.35;;;;;;;5.86;98.32;101332.09;5055594;28;20039;-79
2020/12/19 02:24:21;;;;;;;15.05;10.02;;;;;;;5.83;98.44;101329.53;5055367;28;20653;-79
2020/12/19 02:26:50;;;;;;;13.27;8.63;;;;;;;5.86;98.23;101327.69;5053976;28;20028;-79
2020/12/19 02:29:17;;;;;;;14.15;8.88;;;;;;;5.81;98.55;101320.81;5058431;28;20044;-80
2020/12/19 02:31:43;;;;;;;15.70;9.02;;;;;;;5.82;98.40;101314.66;5057019;28;20052;-80
2020/12/19 02:34:09;;;;;;;15.23;10.23;;;;;;;5.88;98.19;101327.69;5055772;28;20053;-80
2020/12/19 02:36:35;;;;;;;13.57;8.82;;;;;;;5.79;98.33;101315.59;5059884;28;20531;-79
2020/12/19 02:39:00;;;;;;;16.60;10.07;;;;;;;5.84;98.31;101312.91;5060720;28;20052;-80
2020/12/19 02:41:26;;;;;;;14.80;9.60;;;;;;;5.83;98.46;101305.94;5062131;28;20055;-79
2020/12/19 02:43:53;;;;;;;15.00;9.63;;;;;;;5.91;98.13;101310.16;5050819;28;20028;-79
2020/12/19 02:46:19;;;;;;;12.52;8.27;;;;;;;5.82;98.40;101293.69;5056563;28;20043;-79
2020/12/19 02:48:45;;;;;;;16.75;10.20;;;;;;;5.87;98.11;101299.69;5060427;28;20060;-79
2020/12/19 02:51:10;;;;;;;15.70;9.13;;;;;;;5.84;98.26;101305.88;5058114;28;20043;-79
2020/12/19 02:53:35;;;;;;;15.82;8.98;;;;;;;5.87;98.39;101300.59;5055478;28;20025;-80
2020/12/19 02:56:00;;;;;;;17.42;9.48;;;;;;;5.79;98.36;101291.13;5052996;28;20123;-79
2020/12/19 02:58:26;;;;;;;19.35;9.45;;;;;;;5.80;98.47;101293.72;5051788;28;20036;-79
2020/12/19 03:06:38;;;;;;;13.77;10.03;;;;;;;5.82;98.59;101273.56;5053395;28;20033;-79
2020/12/19 03:09:04;;;;;;;15.75;8.95;;;;;;;5.86;98.41;101277.00;5050252;28;20310;-81
2020/12/19 03:11:29;;;;;;;15.63;10.40;;;;;;;5.89;98.31;101269.94;5052199;28;20715;-79
2020/12/19 03:13:54;;;;;;;13.23;8.45;;;;;;;5.87;98.27;101271.75;5055394;28;20048;-78
2020/12/19 03:16:19;;;;;;;14.38;8.98;;;;;;;5.89;98.19;101276.94;5052755;28;20206;-79
2020/12/19 03:18:45;;;;;;;9.80;7.97;;;;;;;5.95;98.02;101272.47;5047886;28;20021;-79
2020/12/19 03:21:10;;;;;;;15.40;8.95;;;;;;;5.87;98.00;101268.22;5058469;28;20028;-79
2020/12/19 03:23:36;;;;;;;11.55;7.97;;;;;;;5.90;98.17;101271.66;5054934;28;20020;-80
2020/12/19 03:26:02;;;;;;;17.13;9.30;;;;;;;5.85;98.52;101264.78;5058216;28;20520;-80
2020/12/19 03:28:27;;;;;;;13.25;8.60;;;;;;;5.86;98.46;101272.59;5058195;28;20060;-81
2020/12/19 03:30:52;;;;;;;13.38;8.55;;;;;;;5.94;98.41;101256.78;5038502;28;20027;-80
2020/12/19 03:33:18;;;;;;;13.45;9.23;;;;;;;6.00;98.04;101251.41;5055650;28;20108;-79
2020/12/19 03:35:43;;;;;;;13.25;8.75;;;;;;;6.00;97.96;101256.66;5051045;28;20043;-79
2020/12/19 03:38:09;;;;;;;13.75;9.32;;;;;;;5.90;98.21;101250.69;5057584;28;20049;-79
2020/12/19 03:40:35;;;;;;;11.90;8.63;;;;;;;5.95;98.16;101246.25;5034761;28;20021;-80
2020/12/19 03:43:01;;;;;;;11.25;7.68;;;;;;;5.95;98.11;101251.50;5058762;28;20646;-80
2020/12/19 03:45:27;;;;;;;13.35;7.90;;;;;;;5.98;98.19;101247.97;5051197;28;20021;-81
2020/12/19 03:47:52;;;;;;;16.00;8.73;;;;;;;5.94;98.40;101244.53;5052699;28;20401;-79
2020/12/19 03:50:17;;;;;;;14.68;8.90;;;;;;;5.85;98.55;101247.28;5055157;28;20025;-78
2020/12/19 03:52:42;;;;;;;16.15;8.40;;;;;;;5.91;98.48;101235.81;5052386;28;20596;-80
2020/12/19 03:55:08;;;;;;;13.52;8.50;;;;;;;5.95;98.27;101230.50;5054452;28;20039;-81
2020/12/19 03:57:33;;;;;;;12.88;8.32;;;;;;;6.00;98.03;101230.41;5057043;28;20051;-80
2020/12/19 03:59:58;;;;;;;12.35;7.30;;;;;;;6.06;98.08;101234.69;5050895;28;20025;-80
2020/12/19 04:02:23;;;;;;;12.52;7.68;;;;;;;6.05;98.03;101222.47;5057261;28;20057;-80
2020/12/19 04:04:49;;;;;;;10.40;5.93;;;;;;;6.08;98.14;101223.28;5052159;28;20028;-81
2020/12/19 04:07:14;;;;;;;16.63;8.52;;;;;;;6.07;97.71;101221.53;5057227;28;20035;-80
2020/12/19 04:09:39;;;;;;;11.40;6.65;;;;;;;6.16;97.68;101218.72;5053661;28;20048;-80
2020/12/19 04:12:05;;;;;;;11.80;7.60;;;;;;;6.14;97.53;101215.28;5047681;28;20040;-80
2020/12/19 04:14:38;;;;;;;12.32;7.55;;;;;;;6.20;97.50;101216.91;5056037;28;20024;-80
2020/12/19 04:17:05;;;;;;;13.50;9.15;;;;;;;6.07;97.60;101203.16;5055164;28;20435;-81
2020/12/19 04:19:31;;;;;;;13.32;8.27;;;;;;;6.21;97.46;101205.50;5056130;28;20556;-81
2020/12/19 04:21:57;;;;;;;11.23;6.70;;;;;;;6.28;97.01;101193.13;5056039;28;20025;-80
2020/12/19 04:24:22;;;;;;;10.02;7.00;;;;;;;6.30;96.77;101200.06;5057390;28;20025;-80
2020/12/19 04:26:47;;;;;;;13.60;8.02;;;;;;;6.27;96.75;101191.38;5057861;28;20082;-80
2020/12/19 04:29:13;;;;;;;9.82;6.72;;;;;;;6.29;96.63;101197.47;5057195;28;20488;-81
2020/12/19 04:31:38;;;;;;;10.82;7.40;;;;;;;6.34;96.43;101187.75;5053420;28;20060;-80
2020/12/19 04:34:03;;;;;;;11.10;7.22;;;;;;;6.30;96.52;101189.56;5055770;28;20075;-81
2020/12/19 04:36:28;;;;;;;10.55;7.75;;;;;;;6.30;96.35;101192.19;5054494;28;20425;-79
2020/12/19 04:38:54;;;;;;;11.48;7.43;;;;;;;6.41;95.97;101189.34;5055078;28;20067;-80
2020/12/19 04:41:20;;;;;;;10.70;6.60;;;;;;;6.45;95.97;101189.22;5067449;28;20056;-81
2020/12/19 04:43:45;;;;;;;9.95;6.25;;;;;;;6.45;95.51;101170.00;5062321;28;20633;-80
2020/12/19 04:46:13;;;;;;;11.35;6.57;;;;;;;6.55;95.14;101181.16;5043597;28;20025;-80
2020/12/19 04:48:38;;;;;;;10.55;6.85;;;;;;;6.53;95.13;101175.94;5061971;28;20454;-80
2020/12/19 04:51:05;;;;;;;7.57;6.05;;;;;;;6.58;94.92;101160.94;5059385;28;20025;-80
2020/12/19 04:53:31;;;;;;;10.75;7.18;;;;;;;6.73;94.10;101163.22;5060035;28;20020;-80
2020/12/19 04:55:59;;;;;;;11.70;6.15;;;;;;;6.66;94.39;101159.00;5062024;28;20120;-80
2020/12/19 04:58:24;;;;;;;11.25;5.85;;;;;;;6.69;94.18;101161.56;5061986;28;20032;-80
2020/12/19 05:00:50;;;;;;;7.30;4.85;;;;;;;6.77;93.60;101145.59;5056880;28;20025;-80
2020/12/19 05:03:15;;;;;;;8.80;5.80;;;;;;;6.78;93.47;101157.88;5064030;28;20020;-80
2020/12/19 05:05:42;;;;;;;8.15;6.10;;;;;;;6.82;93.46;101153.38;5068274;28;20091;-80
2020/12/19 05:08:08;;;;;;;11.80;6.45;;;;;;;6.82;93.56;101143.72;5065155;28;21316;-80
2020/12/19 05:10:33;;;;;;;15.63;6.97;;;;;;;6.84;93.47;101144.56;5065718;28;20497;-80
2020/12/19 05:12:58;;;;;;;10.73;5.05;;;;;;;6.88;93.26;101143.59;5064568;28;20392;-80
2020/12/19 05:15:24;;;;;;;8.02;6.18;;;;;;;6.85;93.37;101143.66;5061978;28;20085;-80
2020/12/19 05:17:55;;;;;;;10.85;6.50;;;;;;;6.97;92.88;101140.72;5057510;28;20043;-81
2020/12/19 05:20:21;;;;;;;23.70;6.18;;;;;;;6.99;92.83;101135.44;5055612;28;20127;-80
2020/12/19 05:22:51;;;;;;;12.77;6.53;;;;;;;6.97;92.96;101139.88;5064067;28;20054;-80
2020/12/19 05:25:17;;;;;;;11.30;6.38;;;;;;;6.99;92.80;101140.72;5061861;28;20543;-80
2020/12/19 05:27:45;;;;;;;9.05;5.88;;;;;;;7.05;92.50;101142.31;5061571;28;20029;-80
2020/12/19 05:30:11;;;;;;;11.70;6.68;;;;;;;7.09;92.55;101143.97;5048327;28;20041;-80
2020/12/19 05:32:42;;;;;;;9.73;5.45;;;;;;;7.09;92.68;101136.94;5067601;28;20105;-80
2020/12/19 05:35:08;;;;;;;10.07;6.78;;;;;;;7.08;92.99;101142.22;5061228;28;20025;-80
2020/12/19 05:37:33;;;;;;;9.25;6.82;;;;;;;7.09;92.67;101136.09;5067376;28;20032;-81
2020/12/19 05:39:58;;;;;;;11.95;7.57;;;;;;;7.10;92.77;101137.81;5059909;28;20505;-81
2020/12/19 05:42:24;;;;;;;10.23;6.50;;;;;;;7.05;93.17;101131.81;5066593;28;20028;-80
2020/12/19 05:44:49;;;;;;;12.02;6.78;;;;;;;7.07;93.17;101132.63;5064779;28;20028;-80
2020/12/19 05:47:16;;;;;;;14.13;7.80;;;;;;;7.01;93.41;101124.00;5062788;28;20035;-80
2020/12/19 05:49:42;;;;;;;13.13;6.78;;;;;;;6.98;93.56;101133.72;5056531;28;20090;-80
2020/12/19 05:52:09;;;;;;;10.82;7.20;;;;;;;6.96;93.83;101125.88;5058484;28;20553;-80
2020/12/19 05:54:39;;;;;;;11.48;7.57;;;;;;;6.93;93.81;101130.34;5064089;28;20054;-81
2020/12/19 05:57:05;;;;;;;11.20;6.68;;;;;;;6.94;93.98;101127.69;5058059;28;20089;-79
2020/12/19 05:59:32;;;;;;;10.38;6.95;;;;;;;6.96;93.98;101130.25;5060639;28;20469;-79
2020/12/19 06:01:57;;;;;;;12.27;7.38;;;;;;;6.95;93.94;101116.25;5054561;28;20554;-80
2020/12/19 06:04:23;;;;;;;10.90;7.07;;;;;;;6.95;94.38;101125.91;5058420;28;20024;-79
2020/12/19 06:06:48;;;;;;;11.95;7.05;;;;;;;7.03;94.18;101128.34;5057427;28;20032;-80
2020/12/19 06:09:15;;;;;;;10.68;8.55;;;;;;;7.05;94.31;101119.53;5055413;28;20053;-79
2020/12/19 06:11:58;;;;;;;13.07;8.63;;;;;;;7.05;94.31;101116.03;5056718;28;20028;-81
2020/12/19 06:14:25;;;;;;;14.65;7.82;;;;;;;7.12;94.35;101114.97;5057658;28;20035;-79
2020/12/19 06:16:56;;;;;;;13.50;7.93;;;;;;;7.16;94.33;101117.47;5056205;28;20040;-79
2020/12/19 06:19:23;;;;;;;16.27;8.23;;;;;;;7.17;94.37;101124.44;5052743;28;20037;-79
2020/12/19 06:21:52;;;;;;;11.80;7.45;;;;;;;7.22;94.33;101117.31;5058531;28;20033;-80
2020/12/19 06:24:40;;;;;;;11.98;7.68;;;;;;;7.28;94.24;101116.31;5053864;28;20086;-80
2020/12/19 06:27:37;;;;;;;14.38;8.52;;;;;;;7.32;94.38;101117.06;5054699;28;20086;-79
2020/12/19 06:30:02;;;;;;;;;;;;;;;7.31;94.58;101120.63;5058426;28;20099;-79
2020/12/19 06:32:30;;;;;;;14.83;9.10;;;;;;;7.38;94.45;101114.28;5050245;28;20062;-79
2020/12/19 06:34:59;;;;;;;11.00;7.93;;;;;;;7.40;94.43;101105.44;5062251;28;20036;-79
2020/12/19 06:37:26;;;;;;;13.95;8.50;;;;;;;7.37;94.75;101112.56;5055450;28;20020;-80
2020/12/19 06:40:07;;;;;;;12.63;8.32;;;;;;;7.47;94.49;101111.41;5056170;28;20021;-79
2020/12/19 06:42:32;;;;;;;15.43;9.50;;;;;;;7.45;94.73;101111.44;5054260;28;20469;-79
2020/12/19 06:45:21;;;;;;;15.80;9.13;;;;;;;7.45;94.44;101123.75;5058749;28;20028;-79
2020/12/19 06:47:46;;;;;;;16.35;8.93;;;;;;;7.47;94.83;101114.88;5054209;28;20033;-80
2020/12/19 06:50:12;;;;;;;12.60;7.93;;;;;;;7.56;94.39;101118.19;5055051;28;20037;-80
2020/12/19 06:52:37;;;;;;;15.40;9.70;;;;;;;7.55;94.30;101113.84;5051012;28;20500;-80
2020/12/19 06:55:17;;;;;;;16.17;9.60;;;;;;;7.51;94.78;101107.78;5061627;28;20035;-79
2020/12/19 06:57:49;;;;;;;14.80;10.35;;;;;;;7.52;94.51;101104.25;5052116;28;20033;-79
2020/12/19 07:00:19;;;;;;;14.45;9.48;;;;;;;7.44;95.17;101104.47;5057890;28;20033;-79
2020/12/19 07:02:54;;;;;;;15.90;9.75;;;;;;;7.46;95.05;101107.91;5071045;28;20031;-79
2020/12/19 07:05:22;;;;;;;14.93;9.15;;;;;;;7.43;95.35;101105.38;5057599;28;20055;-79
2020/12/19 07:07:48;;;;;;;14.93;9.10;;;;;;;7.44;95.29;101111.50;5057094;28;20036;-80
2020/12/19 07:10:13;;;;;;;14.32;9.38;;;;;;;7.43;95.44;101097.50;5059807;28;20066;-80
2020/12/19 07:12:40;;;;;;;16.75;9.23;;;;;;;7.41;95.52;101095.78;5052776;28;20025;-79
2020/12/19 07:15:09;;;;;;;18.80;10.20;;;;;;;7.39;95.74;101095.84;5061391;28;20099;-79
2020/12/19 07:17:43;;;;;;;16.65;9.32;;;;;;;7.42;95.68;101090.47;5054227;28;20037;-79
2020/12/19 07:20:09;;;;;;;15.13;8.88;;;;;;;7.52;95.45;101097.22;5055958;28;20489;-79
2020/12/19 07:22:34;;;;;;;13.98;9.48;;;;;;;7.50;95.51;101088.53;5053486;28;20035;-79
2020/12/19 07:24:59;;;;;;;16.20;9.43;;;;;;;7.51;95.68;101094.63;5054461;28;20012;-79
2020/12/19 07:27:24;;;;;;;14.68;9.43;;;;;;;7.51;95.81;101078.84;5053136;28;20032;-80
2020/12/19 07:29:58;;;;;;;14.70;9.18;;;;;;;7.53;95.43;101088.44;5046250;28;20480;-80
2020/12/19 07:32:24;;;;;;;18.25;9.43;;;;;;;7.55;95.41;101098.06;5008363;28;20606;-80
2020/12/19 07:34:54;;;;;;;14.55;9.30;;;;;;;7.58;95.65;101084.78;5051308;28;20028;-80
2020/12/19 07:37:20;;;;;;;16.45;10.43;;;;;;;7.58;95.61;101090.06;5047642;28;20505;-80
2020/12/19 07:39:46;;;;;;;15.77;9.75;;;;;;;7.64;95.23;101090.78;5054291;28;20020;-80
2020/12/19 07:42:11;;;;;;;16.48;10.48;;;;;;;7.60;95.51;101093.53;5046723;28;20036;-81
2020/12/19 07:44:38;;;;;;;17.48;9.55;;;;;;;7.66;95.37;101101.25;5051827;28;20039;-80
2020/12/19 07:47:08;;;;;;;23.52;10.52;;;;;;;7.66;95.36;101098.59;5045913;28;20032;-81
2020/12/19 07:49:37;;;;;;;14.00;9.35;;;;;;;7.68;95.58;101096.78;5053205;28;20037;-81
2020/12/19 07:52:11;;;;;;;15.32;8.52;;;;;;;7.76;95.16;101089.53;5052021;28;20060;-80
2020/12/19 07:54:38;;;;;;;18.10;9.55;;;;;;;7.77;95.07;101088.63;5058030;28;20030;-80
2020/12/19 07:57:04;;;;;;;20.33;10.27;;;;;;;7.78;95.06;101087.72;5054330;28;20104;-80
2020/12/19 07:59:30;;;;;;;13.82;9.15;;;;;;;7.81;95.03;101082.38;5057319;28;20043;-79
2020/12/19 08:01:55;;;;;;;19.92;10.48;;;;;;;7.82;94.97;101096.41;5053576;28;20529;-80
2020/12/19 08:04:21;;;;;;;16.88;9.85;;;;;;;7.87;94.73;101097.13;5052294;28;20067;-81
2020/12/19 08:06:47;;;;;;;19.38;10.93;;;;;;;7.92;94.63;101098.72;5047709;28;20401;-80
2020/12/19 08:09:20;;;;;;;21.80;10.25;;;;;;;8.01;94.36;101098.44;5048580;28;20052;-80
2020/12/19 08:11:49;;;;;;;16.98;10.68;;;;;;;8.06;94.17;101098.31;5050129;28;20377;-81
2020/12/19 08:14:15;;;;;;;16.75;10.30;;;;;;;8.11;94.02;101099.03;5053638;28;20031;-80
2020/12/19 08:16:42;;;;;;;15.15;9.32;;;;;;;8.19;93.81;101088.28;5051009;28;20033;-79
2020/12/19 08:19:09;;;;;;;18.25;9.80;;;;;;;8.21;93.48;101092.59;5045041;28;20489;-80
2020/12/19 08:21:37;;;;;;;13.45;8.75;;;;;;;8.25;93.42;101096.00;5050215;28;20331;-80
2020/12/19 08:24:02;;;;;;;13.93;9.23;;;;;;;8.29;93.24;101085.31;5054562;28;20021;-78
2020/12/19 08:26:27;;;;;;;13.07;9.07;;;;;;;8.36;92.90;101095.66;5047070;28;20397;-79
2020/12/19 08:29:09;;;;;;;18.15;9.95;;;;;;;8.34;92.92;101092.22;5051726;28;20401;-79
2020/12/19 08:31:36;;;;;;;12.98;9.27;;;;;;;8.45;92.72;101100.69;5046245;28;20025;-78
2020/12/19 08:34:11;;;;;;;15.85;9.65;;;;;;;8.47;92.69;101089.16;5046994;28;20164;-79
2020/12/19 08:36:44;;;;;;;14.05;9.65;;;;;;;8.53;92.26;101096.91;5048434;28;20028;-80
2020/12/19 08:39:12;;;;;;;12.48;8.82;;;;;;;8.59;92.12;101095.84;5052046;28;20034;-79
2020/12/19 08:41:37;;;;;;;15.20;9.07;;;;;;;8.66;91.86;101088.59;5044268;28;20370;-79
2020/12/19 08:44:03;;;;;;;15.00;8.88;;;;;;;8.59;92.17;101087.06;5031906;28;20021;-79
2020/12/19 08:46:30;;;;;;;14.32;7.82;;;;;;;8.67;91.79;101082.41;5053363;28;20033;-80
2020/12/19 08:49:00;;;;;;;17.73;8.55;;;;;;;8.71;91.93;101073.50;5047798;28;20034;-79
2020/12/19 08:51:25;;;;;;;15.60;9.68;;;;;;;8.74;91.60;101070.75;5044695;28;20179;-79
2020/12/19 08:53:50;;;;;;;15.35;8.98;;;;;;;9.19;89.36;101078.03;5051819;28;20119;-79
2020/12/19 08:56:18;;;;;;;13.23;8.48;;;;;;;9.31;89.19;101067.88;5046072;28;20044;-79
2020/12/19 08:58:59;;;;;;;13.02;8.90;;;;;;;9.57;87.77;101063.44;5046197;28;20191;-80
2020/12/19 09:01:31;;;;;;;10.13;6.80;;;;;;;9.68;87.12;101053.34;5046650;28;20025;-80
2020/12/19 09:04:07;;;;;;;14.77;7.90;;;;;;;9.94;86.36;101062.06;5044618;28;20037;-81
2020/12/19 09:06:45;;;;;;;11.18;7.25;;;;;;;11.19;81.04;101053.47;5045368;28;20485;-81
2020/12/19 09:09:18;;;;;;;11.43;7.38;;;;;;;12.39;76.62;101052.34;5046228;28;20045;-81
2020/12/19 09:11:44;;;;;;;9.80;6.60;;;;;;;11.89;77.03;101043.22;5046796;28;20124;-81
2020/12/19 09:14:13;;;;;;;14.07;8.70;;;;;;;11.43;79.01;101046.22;5048737;28;20032;-81
2020/12/19 09:16:53;;;;;;;16.38;7.28;;;;;;;9.94;84.99;101062.06;5047972;28;20020;-80
2020/12/19 09:19:19;;;;;;;11.43;7.43;;;;;;;9.93;85.09;101053.28;5055549;28;20052;-80
2020/12/19 09:21:54;;;;;;;12.45;8.50;;;;;;;9.84;85.77;101061.56;5052171;28;20099;-81
2020/12/19 09:24:20;;;;;;;16.15;7.57;;;;;;;9.66;86.31;101042.00;5055874;28;20028;-80
2020/12/19 09:26:46;;;;;;;17.45;7.50;;;;;;;9.46;87.31;101055.06;5052717;28;20493;-81
2020/12/19 09:29:11;;;;;;;10.25;6.78;;;;;;;9.34;87.62;101054.59;5056045;28;20116;-81
2020/12/19 09:31:38;;;;;;;12.02;7.97;;;;;;;9.31;88.27;101062.63;5052860;28;20078;-82
2020/12/19 09:34:03;;;;;;;11.10;6.97;;;;;;;9.29;88.19;101069.72;5053610;28;20029;-81
2020/12/19 09:36:28;;;;;;;11.73;7.75;;;;;;;9.26;88.58;101084.78;5056598;28;20035;-81
2020/12/19 09:38:54;;;;;;;15.05;7.45;;;;;;;9.24;88.35;101066.41;5046401;28;20426;-81
2020/12/19 09:41:19;;;;;;;13.43;7.28;;;;;;;9.23;88.42;101069.06;5036409;28;20020;-81
2020/12/19 09:43:44;;;;;;;12.57;7.65;;;;;;;9.24;88.94;101065.53;5048851;28;20017;-82
2020/12/19 09:46:14;;;;;;;11.43;6.63;;;;;;;9.21;89.03;101065.63;5053903;28;20037;-82
2020/12/19 09:48:39;;;;;;;9.43;6.05;;;;;;;9.26;88.81;101061.91;5048504;28;20021;-82
2020/12/19 09:51:05;;;;;;;14.45;7.35;;;;;;;9.31;88.61;101067.03;5056397;28;20037;-82
2020/12/19 09:53:30;;;;;;;12.93;6.90;;;;;;;9.36;88.48;101051.91;5053630;28;20500;-82
2020/12/19 09:55:55;;;;;;;9.75;6.18;;;;;;;9.44;88.10;101056.88;5054631;28;20106;-82
2020/12/19 09:58:20;;;;;;;11.60;6.03;;;;;;;9.54;87.55;101053.03;5049265;28;20041;-81
2020/12/19 10:00:46;;;;;;;10.90;6.25;;;;;;;9.60;87.52;101044.88;5056103;28;20025;-81
2020/12/19 10:03:11;;;;;;;9.32;5.40;;;;;;;9.66;87.30;101042.00;5048179;28;20030;-81
2020/12/19 10:05:37;;;;;;;9.52;6.63;;;;;;;9.75;86.85;101044.31;5057389;28;20396;-81
2020/12/19 10:08:04;;;;;;;12.15;5.20;;;;;;;9.85;86.23;101036.91;5055674;28;20158;-82
2020/12/19 10:10:29;;;;;;;8.55;5.60;;;;;;;9.88;85.84;101025.34;5051060;28;20041;-81
2020/12/19 10:12:54;;;;;;;10.52;4.93;;;;;;;10.03;85.76;101032.66;5031220;28;20026;-80
2020/12/19 10:15:20;;;;;;;8.05;4.93;;;;;;;10.03;85.25;101027.38;5053635;28;20103;-80
2020/12/19 10:17:45;;;;;;;12.68;5.68;;;;;;;10.17;84.73;101026.84;5054326;28;20029;-81
2020/12/19 10:20:10;;;;;;;9.43;5.03;;;;;;;10.14;84.71;101022.56;5050879;28;20112;-80
2020/12/19 10:22:35;;;;;;;10.85;4.80;;;;;;;10.18;84.80;101023.28;5052736;28;20067;-81
2020/12/19 10:25:03;;;;;;;9.85;4.60;;;;;;;10.19;84.61;101023.25;5054755;28;20516;-79
2020/12/19 10:27:28;;;;;;;10.00;4.80;;;;;;;10.21;84.61;101007.31;5052839;28;20096;-80
2020/12/19 10:29:54;;;;;;;8.80;4.93;;;;;;;10.19;84.68;101025.00;5050554;28;20481;-80
2020/12/19 10:32:19;;;;;;;7.57;4.53;;;;;;;10.18;84.19;101020.63;5053919;28;20831;-81
2020/12/19 10:34:45;;;;;;;10.13;3.72;;;;;;;10.18;84.29;101026.78;5059139;28;20087;-81
2020/12/19 10:37:10;;;;;;;11.63;5.10;;;;;;;10.27;84.36;101036.16;5055471;28;20066;-81
2020/12/19 10:39:35;;;;;;;6.78;4.50;;;;;;;10.28;84.61;101044.00;5055394;28;20092;-81
2020/12/19 10:42:01;;;;;;;7.53;4.03;;;;;;;10.27;84.36;101036.16;5049454;28;20132;-82
2020/12/19 10:44:26;;;;;;;8.13;4.53;;;;;;;10.30;84.45;101028.97;5057149;28;20478;-82
2020/12/19 10:46:51;;;;;;;8.77;4.50;;;;;;;10.31;84.56;101029.84;5057855;28;20094;-81
2020/12/19 10:49:17;;;;;;;7.07;4.40;;;;;;;10.33;84.10;101031.47;5045213;28;20035;-80
2020/12/19 10:51:42;;;;;;;8.00;4.20;;;;;;;10.36;84.40;101031.38;5056019;28;20024;-80
2020/12/19 10:54:07;;;;;;;7.88;4.15;;;;;;;10.42;84.24;101040.81;5052054;28;20532;-80
2020/12/19 10:56:32;;;;;;;8.90;4.28;;;;;;;10.43;84.39;101045.19;5048595;28;20021;-82
2020/12/19 10:58:58;;;;;;;6.70;4.13;;;;;;;10.46;83.63;101039.78;5054496;28;20020;-81
2020/12/19 11:01:23;;;;;;;9.00;3.80;;;;;;;10.50;83.70;101045.81;5045877;28;20048;-81
2020/12/19 11:03:48;;;;;;;6.38;3.80;;;;;;;10.49;84.08;101039.66;5055218;28;20029;-79
2020/12/19 11:06:19;;;;;;;7.68;4.25;;;;;;;10.54;83.63;101035.06;5053924;28;20539;-81
2020/12/19 11:08:44;;;;;;;8.63;4.30;;;;;;;10.54;83.27;101044.75;5049775;28;20049;-83
2020/12/19 11:11:09;;;;;;;8.38;3.88;;;;;;;10.52;83.37;101034.25;5053009;28;20073;-81
2020/12/19 11:13:35;;;;;;;5.95;3.17;;;;;;;10.51;82.97;101040.44;5044613;28;20627;-81
2020/12/19 11:16:00;;;;;;;7.45;3.85;;;;;;;10.50;83.08;101045.81;5056850;28;20107;-81
2020/12/19 11:18:25;;;;;;;8.70;3.38;;;;;;;10.52;83.26;101038.66;5051492;28;20505;-81
2020/12/19 11:20:52;;;;;;;4.05;3.05;;;;;;;10.60;82.76;101026.00;5050648;28;20021;-81
2020/12/19 11:23:17;;;;;;;12.15;3.97;;;;;;;10.60;82.16;101016.28;5047456;28;20166;-81
2020/12/19 11:25:42;;;;;;;9.23;4.00;;;;;;;10.58;83.07;101015.47;5054711;28;20840;-81
2020/12/19 11:28:08;;;;;;;9.43;3.20;;;;;;;10.64;82.07;101027.56;5053231;28;20048;-81